Time;durP1;ratioP1;P1;durP2;ratioP2;P2;SDS_P1;SDS_P2;PMS_P1;PMS_P2;Temp;Humidity;BMP_temperature;BMP_pressure;BME280_temperature;BME280_humidity;BME280_pressure;Samples;Min_cycle;Max_cycle;Signal;HPM_P1;HPM_P2
2022/04/01 00:00:59;;;;;;;7.65;2.92;;;;;;;;;;4950697;28;20047;-81
2022/04/01 00:03:24;;;;;;;9.80;2.97;;;;;;;;;;4958509;28;20046;-81
2022/04/01 00:05:50;;;;;;;7.05;2.85;;;;;;;;;;4967026;28;20027;-80
2022/04/01 00:08:15;;;;;;;6.63;3.10;;;;;;;;;;4961295;28;20027;-80
2022/04/01 00:10:41;;;;;;;9.40;3.30;;;;;;;;;;4947590;28;20039;-80
2022/04/01 00:13:06;;;;;;;8.95;3.22;;;;;;;;;;4946579;28;20038;-79
2022/04/01 00:15:32;;;;;;;5.45;2.97;;;;;;;;;;4949673;28;20032;-80
2022/04/01 00:17:58;;;;;;;7.00;3.50;;;;;;;;;;4948364;28;20383;-80
2022/04/01 00:20:23;;;;;;;8.15;3.17;;;;;;;;;;4964791;28;20113;-81
2022/04/01 00:22:49;;;;;;;8.35;3.35;;;;;;;;;;4966459;28;20045;-79
2022/04/01 00:25:17;;;;;;;6.10;3.33;;;;;;;;;;4951315;28;20050;-81
2022/04/01 00:27:42;;;;;;;8.20;3.30;;;;;;;;;;4947840;28;20402;-80
2022/04/01 00:30:08;;;;;;;8.77;3.40;;;;;;;;;;4960596;28;20043;-81
2022/04/01 00:32:34;;;;;;;6.45;3.25;;;;;;;;;;4961260;28;20038;-79
2022/04/01 00:35:00;;;;;;;7.78;3.60;;;;;;;;;;4956113;28;20395;-79
2022/04/01 00:37:25;;;;;;;8.93;3.72;;;;;;;;;;4947830;28;20084;-79
2022/04/01 00:39:50;;;;;;;9.07;3.53;;;;;;;;;;4947538;28;20097;-79
2022/04/01 00:42:16;;;;;;;6.22;3.30;;;;;;;;;;4962897;28;20903;-80
2022/04/01 00:44:41;;;;;;;9.65;3.63;;;;;;;;;;4962637;28;20034;-80
2022/04/01 00:47:10;;;;;;;9.63;3.63;;;;;;;;;;4962402;28;20039;-80
2022/04/01 00:49:36;;;;;;;8.93;4.00;;;;;;;;;;4964563;28;20383;-80
2022/04/01 00:52:04;;;;;;;6.35;3.35;;;;;;;;;;4946466;28;20039;-80
2022/04/01 00:54:30;;;;;;;6.97;3.17;;;;;;;;;;4963069;28;20192;-79
2022/04/01 00:56:55;;;;;;;12.07;3.60;;;;;;;;;;4966175;28;20152;-80
2022/04/01 00:59:24;;;;;;;9.48;3.75;;;;;;;;;;4949183;28;20035;-80
2022/04/01 01:01:50;;;;;;;7.28;3.20;;;;;;;;;;4946092;28;20474;-80
2022/04/01 01:06:54;;;;;;;9.02;3.63;;;;;;;;;;5018039;23;20053;-82
2022/04/01 01:09:19;;;;;;;7.93;3.40;;;;;;;;;;4968069;28;20030;-82
2022/04/01 01:11:49;;;;;;;5.47;3.08;;;;;;;;;;4974223;28;20536;-81
2022/04/01 01:14:16;;;;;;;7.53;3.38;;;;;;;;;;4983143;28;20031;-82
2022/04/01 01:16:44;;;;;;;7.50;3.35;;;;;;;;;;4975982;28;20038;-83
2022/04/01 01:19:16;;;;;;;10.85;3.85;;;;;;;;;;4976212;28;20534;-82
2022/04/01 01:21:42;;;;;;;6.68;3.20;;;;;;;;;;4974200;28;20030;-82
2022/04/01 01:24:11;;;;;;;9.40;3.47;;;;;;;;;;4983749;28;20046;-81
2022/04/01 01:26:37;;;;;;;7.97;3.15;;;;;;;;;;4966017;28;20027;-86
2022/04/01 01:29:04;;;;;;;8.50;3.80;;;;;;;;;;4975954;28;20053;-83
2022/04/01 01:31:29;;;;;;;7.32;3.22;;;;;;;;;;4974031;28;20141;-81
2022/04/01 01:33:56;;;;;;;6.45;3.10;;;;;;;;;;4966270;28;20130;-84
2022/04/01 01:36:23;;;;;;;9.17;3.00;;;;;;;;;;4965955;28;20505;-82
2022/04/01 01:38:49;;;;;;;9.00;3.17;;;;;;;;;;4976227;28;20378;-84
2022/04/01 01:41:14;;;;;;;6.90;3.28;;;;;;;;;;4973531;28;20042;-83
2022/04/01 01:43:41;;;;;;;6.15;3.20;;;;;;;;;;4965290;28;20442;-82
2022/04/01 01:46:06;;;;;;;5.82;3.03;;;;;;;;;;4975970;28;20122;-81
2022/04/01 01:48:32;;;;;;;7.80;3.40;;;;;;;;;;4974046;28;20123;-80
2022/04/01 01:56:25;;;;;;;7.45;3.20;;;;;;;;;;4975120;28;20062;-85
2022/04/01 01:58:50;;;;;;;6.78;3.45;;;;;;;;;;4961214;28;20042;-83
2022/04/01 02:01:15;;;;;;;7.63;3.25;;;;;;;;;;4973265;28;20331;-81
2022/04/01 02:03:41;;;;;;;6.90;3.00;;;;;;;;;;4975374;28;20045;-82
2022/04/01 02:06:06;;;;;;;6.15;3.10;;;;;;;;;;4973854;28;20042;-82
2022/04/01 02:08:32;;;;;;;6.95;3.40;;;;;;;;;;4963801;28;20114;-82
2022/04/01 02:10:57;;;;;;;7.18;3.45;;;;;;;;;;4972631;28;20042;-83
2022/04/01 02:13:23;;;;;;;9.60;3.47;;;;;;;;;;4975095;28;20085;-84
2022/04/01 02:15:49;;;;;;;6.47;3.28;;;;;;;;;;4973252;28;20042;-84
2022/04/01 02:18:15;;;;;;;7.82;3.55;;;;;;;;;;4974931;28;20599;-82
2022/04/01 02:20:41;;;;;;;7.43;3.28;;;;;;;;;;4956810;28;20509;-83
2022/04/01 02:23:11;;;;;;;8.18;3.05;;;;;;;;;;4959476;28;20042;-83
2022/04/01 02:25:36;;;;;;;8.05;3.40;;;;;;;;;;4981052;28;20037;-82
2022/04/01 02:28:02;;;;;;;6.32;3.22;;;;;;;;;;4980585;28;20038;-84
2022/04/01 02:30:27;;;;;;;6.18;3.40;;;;;;;;;;4972371;28;20085;-82
2022/04/01 02:32:53;;;;;;;8.02;3.20;;;;;;;;;;4974451;28;20472;-83
2022/04/01 02:35:18;;;;;;;7.75;4.35;;;;;;;;;;4957735;28;20042;-84
2022/04/01 02:37:43;;;;;;;8.63;3.70;;;;;;;;;;4975920;28;20065;-82
2022/04/01 02:40:11;;;;;;;8.38;3.38;;;;;;;;;;4980080;28;20042;-83
2022/04/01 02:42:36;;;;;;;6.45;3.50;;;;;;;;;;4974620;28;20564;-83
2022/04/01 02:45:02;;;;;;;6.75;3.45;;;;;;;;;;4975227;28;20050;-83
2022/04/01 02:47:27;;;;;;;7.65;3.42;;;;;;;;;;4974394;28;20393;-83
2022/04/01 02:49:53;;;;;;;8.00;3.55;;;;;;;;;;4976634;28;20042;-84
2022/04/01 02:52:19;;;;;;;7.80;3.60;;;;;;;;;;4978064;28;20045;-83
2022/04/01 02:54:45;;;;;;;7.50;3.53;;;;;;;;;;4979900;28;20115;-82
2022/04/01 02:57:10;;;;;;;9.18;3.60;;;;;;;;;;4977263;28;20041;-83
2022/04/01 02:59:36;;;;;;;8.68;3.72;;;;;;;;;;4982919;28;20456;-83
2022/04/01 03:02:02;;;;;;;8.45;4.00;;;;;;;;;;4975793;28;20890;-84
2022/04/01 03:04:28;;;;;;;6.38;3.50;;;;;;;;;;4975644;28;20069;-83
2022/04/01 03:06:53;;;;;;;8.18;3.60;;;;;;;;;;4983717;28;20039;-83
2022/04/01 03:09:19;;;;;;;9.13;3.78;;;;;;;;;;4978075;28;20096;-84
2022/04/01 03:11:47;;;;;;;8.20;3.47;;;;;;;;;;4984700;28;20088;-84
2022/04/01 03:14:15;;;;;;;10.07;3.53;;;;;;;;;;4982749;28;20042;-82
2022/04/01 03:16:41;;;;;;;8.70;3.60;;;;;;;;;;4976580;28;20579;-83
2022/04/01 03:19:10;;;;;;;7.40;3.58;;;;;;;;;;4976783;28;20042;-83
2022/04/01 03:21:41;;;;;;;6.05;3.38;;;;;;;;;;4975625;28;20065;-82
2022/04/01 03:24:09;;;;;;;9.60;4.38;;;;;;;;;;4991620;28;20038;-82
2022/04/01 03:26:34;;;;;;;;;;;;;;;;;;4978341;28;20109;-82
2022/04/01 03:29:00;;;;;;;9.82;3.63;;;;;;;;;;4979208;28;20001;-84
2022/04/01 03:31:26;;;;;;;7.90;3.80;;;;;;;;;;4976919;28;20589;-83
2022/04/01 03:33:51;;;;;;;11.18;4.32;;;;;;;;;;4978022;28;20145;-85
2022/04/01 03:36:17;;;;;;;9.05;3.90;;;;;;;;;;4982706;28;20561;-84
2022/04/01 03:38:42;;;;;;;7.10;3.75;;;;;;;;;;4985527;28;20072;-83
2022/04/01 03:41:08;;;;;;;9.30;3.83;;;;;;;;;;4983079;28;20145;-82
2022/04/01 03:43:36;;;;;;;7.97;4.00;;;;;;;;;;4975636;28;20069;-84
2022/04/01 03:46:15;;;;;;;11.50;4.88;;;;;;;;;;4975757;28;20157;-83
2022/04/01 03:48:48;;;;;;;7.80;4.10;;;;;;;;;;4984181;28;20112;-83
2022/04/01 03:51:22;;;;;;;9.27;3.72;;;;;;;;;;4967594;28;20046;-82
2022/04/01 03:53:58;;;;;;;8.32;3.70;;;;;;;;;;4982772;28;20124;-82
2022/04/01 03:56:29;;;;;;;7.57;3.78;;;;;;;;;;4977235;28;20454;-84
2022/04/01 03:59:01;;;;;;;7.22;3.55;;;;;;;;;;4984699;28;20050;-84
2022/04/01 04:01:26;;;;;;;7.50;3.97;;;;;;;;;;4967212;28;20487;-82
2022/04/01 04:03:52;;;;;;;8.13;4.43;;;;;;;;;;4961220;28;20145;-79
2022/04/01 04:06:18;;;;;;;7.63;3.88;;;;;;;;;;4975556;28;20042;-79
2022/04/01 04:08:45;;;;;;;9.27;3.83;;;;;;;;;;4975800;28;20046;-79
2022/04/01 04:11:11;;;;;;;8.00;4.25;;;;;;;;;;4980429;28;20042;-79
2022/04/01 04:13:37;;;;;;;7.93;3.92;;;;;;;;;;4975142;28;20565;-79
2022/04/01 04:16:20;;;;;;;8.38;4.68;;;;;;;;;;4983400;28;20042;-78
2022/04/01 04:18:57;;;;;;;7.82;4.20;;;;;;;;;;4982496;28;20034;-77
2022/04/01 04:21:29;;;;;;;6.73;4.27;;;;;;;;;;4958018;28;20485;-78
2022/04/01 04:23:58;;;;;;;8.63;4.25;;;;;;;;;;4968502;28;20042;-80
2022/04/01 04:26:24;;;;;;;10.38;4.13;;;;;;;;;;4982716;28;20352;-78
2022/04/01 04:28:56;;;;;;;8.73;4.07;;;;;;;;;;4983883;28;20038;-78
2022/04/01 04:31:26;;;;;;;9.02;3.95;;;;;;;;;;4975900;28;20030;-78
2022/04/01 04:33:55;;;;;;;7.05;4.05;;;;;;;;;;4978773;28;20402;-79
2022/04/01 04:36:34;;;;;;;7.65;4.30;;;;;;;;;;4975478;28;20041;-78
2022/04/01 04:39:03;;;;;;;9.63;4.15;;;;;;;;;;4977389;28;20035;-79
2022/04/01 04:41:28;;;;;;;9.02;3.78;;;;;;;;;;4980651;28;20042;-78
2022/04/01 04:43:54;;;;;;;9.30;4.53;;;;;;;;;;4975556;28;20565;-79
2022/04/01 04:46:20;;;;;;;10.30;3.97;;;;;;;;;;4968139;28;20034;-77
2022/04/01 04:48:46;;;;;;;8.68;3.70;;;;;;;;;;4978668;28;20065;-79
2022/04/01 04:51:12;;;;;;;7.68;3.72;;;;;;;;;;4976657;28;20042;-80
2022/04/01 04:53:39;;;;;;;6.70;3.70;;;;;;;;;;4976300;28;20493;-79
2022/04/01 04:56:05;;;;;;;8.10;3.78;;;;;;;;;;4974368;28;20042;-78
2022/04/01 04:58:48;;;;;;;8.02;3.95;;;;;;;;;;4977813;28;20042;-77
2022/04/01 05:01:45;;;;;;;7.68;4.03;;;;;;;;;;4980196;28;21523;-78
2022/04/01 05:04:29;;;;;;;15.25;8.07;;;;;;;;;;4976732;28;20034;-79
2022/04/01 05:06:57;;;;;;;10.05;5.28;;;;;;;;;;4976316;28;20073;-79
2022/04/01 05:09:26;;;;;;;9.40;3.95;;;;;;;;;;4979655;28;20044;-78
2022/04/01 05:12:24;;;;;;;8.52;4.03;;;;;;;;;;4974050;28;20070;-81
2022/04/01 05:14:57;;;;;;;7.47;3.65;;;;;;;;;;4976174;28;20441;-79
2022/04/01 05:17:27;;;;;;;10.50;3.88;;;;;;;;;;4982900;28;20122;-79
2022/04/01 05:19:58;;;;;;;6.97;3.78;;;;;;;;;;4983566;28;20030;-78
2022/04/01 05:22:29;;;;;;;8.50;3.70;;;;;;;;;;4981180;28;20034;-81
2022/04/01 05:24:58;;;;;;;10.60;4.25;;;;;;;;;;4965939;28;20073;-79
2022/04/01 05:27:30;;;;;;;8.23;3.67;;;;;;;;;;4976249;28;20034;-79
2022/04/01 05:30:12;;;;;;;7.40;3.80;;;;;;;;;;4960187;28;20066;-80
2022/04/01 05:32:39;;;;;;;9.20;3.80;;;;;;;;;;4975857;28;20034;-78
2022/04/01 05:35:06;;;;;;;7.72;3.95;;;;;;;;;;4974106;28;20038;-81
2022/04/01 05:37:33;;;;;;;7.32;3.65;;;;;;;;;;4974405;28;20030;-78
2022/04/01 05:39:59;;;;;;;10.88;3.70;;;;;;;;;;4973245;28;20498;-79
2022/04/01 05:42:27;;;;;;;9.80;3.65;;;;;;;;;;4973242;28;20073;-81
2022/04/01 05:44:53;;;;;;;9.23;3.40;;;;;;;;;;4973569;28;20026;-78
2022/04/01 05:47:20;;;;;;;8.15;3.65;;;;;;;;;;4942739;28;20049;-80
2022/04/01 05:49:46;;;;;;;8.90;3.33;;;;;;;;;;4965393;28;20509;-80
2022/04/01 05:52:12;;;;;;;7.57;3.95;;;;;;;;;;4969698;28;20085;-80
2022/04/01 05:54:41;;;;;;;9.50;3.58;;;;;;;;;;4952697;28;20501;-78
2022/04/01 05:57:10;;;;;;;9.50;4.00;;;;;;;;;;4965067;28;20031;-77
2022/04/01 05:59:39;;;;;;;9.50;3.85;;;;;;;;;;4973577;28;20058;-80
2022/04/01 06:02:42;;;;;;;9.38;3.50;;;;;;;;;;4974610;28;20418;-79
2022/04/01 06:05:18;;;;;;;7.95;3.30;;;;;;;;;;4972103;28;20066;-79
2022/04/01 06:07:50;;;;;;;8.93;3.30;;;;;;;;;;4969760;28;20098;-78
2022/04/01 06:10:55;;;;;;;8.25;3.50;;;;;;;;;;4973274;28;20050;-80
2022/04/01 06:13:45;;;;;;;7.05;3.25;;;;;;;;;;4968228;28;20042;-79
2022/04/01 06:16:20;;;;;;;8.90;3.55;;;;;;;;;;4964241;28;20125;-80
2022/04/01 06:19:10;;;;;;;9.20;3.40;;;;;;;;;;4975440;28;20046;-79
2022/04/01 06:22:03;;;;;;;7.30;3.60;;;;;;;;;;4973255;28;20120;-80
2022/04/01 06:24:47;;;;;;;6.53;3.20;;;;;;;;;;4974539;28;20574;-79
2022/04/01 06:27:34;;;;;;;6.88;3.42;;;;;;;;;;4971651;28;20129;-79
2022/04/01 06:30:06;;;;;;;8.33;3.37;;;;;;;;;;4975100;28;20066;-80
2022/04/01 06:32:53;;;;;;;9.55;3.60;;;;;;;;;;4945357;28;20278;-78
2022/04/01 06:35:40;;;;;;;10.55;3.70;;;;;;;;;;4981325;28;20050;-80
2022/04/01 06:38:07;;;;;;;9.30;3.20;;;;;;;;;;4972827;28;20035;-79
2022/04/01 06:40:59;;;;;;;8.32;3.60;;;;;;;;;;4978604;28;20489;-79
2022/04/01 06:43:26;;;;;;;7.18;3.28;;;;;;;;;;4966638;28;20513;-80
2022/04/01 06:45:51;;;;;;;6.75;2.90;;;;;;;;;;4970240;28;20041;-79
2022/04/01 06:48:17;;;;;;;7.43;3.22;;;;;;;;;;4961270;28;20398;-80
2022/04/01 06:50:49;;;;;;;9.18;3.58;;;;;;;;;;4971109;28;20418;-79
2022/04/01 06:53:15;;;;;;;8.20;3.20;;;;;;;;;;4974448;28;20042;-79
2022/04/01 06:55:41;;;;;;;8.57;3.55;;;;;;;;;;4971909;28;20053;-79
2022/04/01 06:58:11;;;;;;;7.57;3.10;;;;;;;;;;4979412;28;20042;-82
2022/04/01 07:00:37;;;;;;;7.35;3.00;;;;;;;;;;4961072;28;20389;-79
2022/04/01 07:03:02;;;;;;;7.90;3.10;;;;;;;;;;4971920;28;20976;-80
2022/04/01 07:05:28;;;;;;;7.53;3.05;;;;;;;;;;4971667;28;20043;-80
2022/04/01 07:07:53;;;;;;;5.97;2.83;;;;;;;;;;4975701;28;20043;-80
2022/04/01 07:10:19;;;;;;;7.65;2.90;;;;;;;;;;4978473;28;20046;-79
2022/04/01 07:12:49;;;;;;;7.47;2.95;;;;;;;;;;4972594;28;20061;-79
2022/04/01 07:15:14;;;;;;;6.07;2.70;;;;;;;;;;4973004;28;20051;-79
2022/04/01 07:17:39;;;;;;;9.07;3.10;;;;;;;;;;4970516;28;20434;-84
2022/04/01 07:20:05;;;;;;;9.13;2.83;;;;;;;;;;4972079;28;20065;-83
2022/04/01 07:22:31;;;;;;;11.30;3.53;;;;;;;;;;4959094;28;20042;-83
2022/04/01 07:24:59;;;;;;;8.43;3.17;;;;;;;;;;4971216;28;20671;-83
2022/04/01 07:27:24;;;;;;;8.75;3.22;;;;;;;;;;4979453;28;20041;-83
2022/04/01 07:29:49;;;;;;;7.35;3.10;;;;;;;;;;4976104;28;20034;-82
2022/04/01 07:32:30;;;;;;;8.57;3.00;;;;;;;;;;4971353;28;20101;-82
2022/04/01 07:34:56;;;;;;;7.05;3.25;;;;;;;;;;4974147;28;20108;-82
2022/04/01 07:37:23;;;;;;;9.68;3.08;;;;;;;;;;4974501;28;20433;-84
2022/04/01 07:39:49;;;;;;;8.45;3.28;;;;;;;;;;4976995;28;20045;-84
2022/04/01 07:42:14;;;;;;;7.88;3.25;;;;;;;;;;4957847;28;20042;-84
2022/04/01 07:44:40;;;;;;;8.32;3.08;;;;;;;;;;4976857;28;20054;-84
2022/04/01 07:47:09;;;;;;;8.80;3.30;;;;;;;;;;4980929;28;20086;-84
2022/04/01 07:49:36;;;;;;;6.13;2.97;;;;;;;;;;4983500;28;20035;-82
2022/04/01 07:52:01;;;;;;;5.95;2.50;;;;;;;;;;4973296;28;20034;-81
2022/04/01 07:54:26;;;;;;;13.00;3.00;;;;;;;;;;4973982;28;20094;-85
2022/04/01 07:56:51;;;;;;;6.40;2.80;;;;;;;;;;4984267;28;20130;-84
2022/04/01 07:59:19;;;;;;;6.57;2.63;;;;;;;;;;4976005;28;20034;-83
2022/04/01 08:01:44;;;;;;;6.95;3.15;;;;;;;;;;4975774;28;20945;-83
2022/04/01 08:04:09;;;;;;;6.68;2.65;;;;;;;;;;4973654;28;20053;-83
2022/04/01 08:06:35;;;;;;;6.82;2.85;;;;;;;;;;4976202;28;20035;-85
2022/04/01 08:09:01;;;;;;;8.80;2.85;;;;;;;;;;4974614;28;20035;-82
2022/04/01 08:11:26;;;;;;;7.00;3.30;;;;;;;;;;4975210;28;20065;-83
2022/04/01 08:13:52;;;;;;;6.10;2.67;;;;;;;;;;4978998;28;20038;-83
2022/04/01 08:16:18;;;;;;;10.35;3.38;;;;;;;;;;4974389;28;20043;-83
2022/04/01 08:18:43;;;;;;;5.93;2.40;;;;;;;;;;4981725;28;20039;-84
2022/04/01 08:21:09;;;;;;;7.45;2.55;;;;;;;;;;4981758;28;20130;-85
2022/04/01 08:23:35;;;;;;;6.60;2.50;;;;;;;;;;4972546;28;20038;-83
2022/04/01 08:26:04;;;;;;;7.28;2.40;;;;;;;;;;4967461;28;20045;-84
2022/04/01 08:28:29;;;;;;;9.48;2.63;;;;;;;;;;4980600;28;20045;-83
2022/04/01 08:30:55;;;;;;;8.00;2.80;;;;;;;;;;4973520;28;20042;-83
2022/04/01 08:33:20;;;;;;;5.75;2.30;;;;;;;;;;4973396;28;20046;-84
2022/04/01 08:35:49;;;;;;;5.65;2.60;;;;;;;;;;4975093;28;20133;-83
2022/04/01 08:38:14;;;;;;;7.57;2.30;;;;;;;;;;4975790;28;20042;-81
2022/04/01 08:40:40;;;;;;;6.13;2.50;;;;;;;;;;4975157;28;20100;-83
2022/04/01 08:43:06;;;;;;;8.70;2.47;;;;;;;;;;4976451;28;20528;-84
2022/04/01 08:45:33;;;;;;;5.47;2.20;;;;;;;;;;4973882;28;20039;-84
2022/04/01 08:47:59;;;;;;;7.35;2.88;;;;;;;;;;4974536;28;20038;-83
2022/04/01 08:50:27;;;;;;;5.85;2.13;;;;;;;;;;4966081;28;20046;-85
2022/04/01 08:52:52;;;;;;;5.82;2.20;;;;;;;;;;4975743;28;20562;-83
2022/04/01 08:55:18;;;;;;;5.85;2.65;;;;;;;;;;4972082;28;20397;-83
2022/04/01 08:57:43;;;;;;;8.85;2.72;;;;;;;;;;4978563;28;20038;-83
2022/04/01 09:00:18;;;;;;;9.70;2.20;;;;;;;;;;4975355;28;20133;-84
2022/04/01 09:02:45;;;;;;;5.90;2.05;;;;;;;;;;4972853;28;20528;-82
2022/04/01 09:05:15;;;;;;;6.40;2.30;;;;;;;;;;4980038;28;20149;-84
2022/04/01 09:07:43;;;;;;;9.52;2.40;;;;;;;;;;4975436;28;20109;-87
2022/04/01 09:10:09;;;;;;;8.95;2.05;;;;;;;;;;4974620;28;21057;-86
2022/04/01 09:12:35;;;;;;;6.88;2.25;;;;;;;;;;4975612;28;20030;-82
2022/04/01 09:15:01;;;;;;;8.75;2.28;;;;;;;;;;4962409;28;20053;-82
2022/04/01 09:17:44;;;;;;;7.27;2.13;;;;;;;;;;4973545;28;20053;-83
2022/04/01 09:20:10;;;;;;;4.18;1.90;;;;;;;;;;4971728;28;20564;-84
2022/04/01 09:22:37;;;;;;;6.15;2.05;;;;;;;;;;4972004;28;20042;-85
2022/04/01 09:25:11;;;;;;;7.18;1.90;;;;;;;;;;4976406;28;20113;-85
2022/04/01 09:27:47;;;;;;;6.53;2.10;;;;;;;;;;4940330;28;20030;-81
2022/04/01 09:30:13;;;;;;;6.03;2.22;;;;;;;;;;4974760;28;20173;-80
2022/04/01 09:32:51;;;;;;;10.27;2.35;;;;;;;;;;4955250;28;20031;-85
2022/04/01 09:35:17;;;;;;;5.63;2.33;;;;;;;;;;4944987;28;20053;-83
2022/04/01 09:37:47;;;;;;;8.23;2.05;;;;;;;;;;4976112;28;20039;-84
2022/04/01 09:40:17;;;;;;;10.05;2.13;;;;;;;;;;4964827;28;20046;-83
2022/04/01 09:42:52;;;;;;;5.50;2.50;;;;;;;;;;4971343;28;20039;-84
2022/04/01 09:45:29;;;;;;;7.45;1.77;;;;;;;;;;4980453;28;20490;-83
2022/04/01 09:48:03;;;;;;;7.57;2.30;;;;;;;;;;4956415;28;20132;-83
2022/04/01 09:50:35;;;;;;;5.65;2.20;;;;;;;;;;4972839;28;21119;-83
2022/04/01 09:53:14;;;;;;;7.90;2.17;;;;;;;;;;4973238;28;20121;-83
2022/04/01 09:55:41;;;;;;;3.90;1.90;;;;;;;;;;4978691;28;20061;-84
2022/04/01 09:58:08;;;;;;;5.72;2.15;;;;;;;;;;4963911;28;20146;-84
2022/04/01 10:00:34;;;;;;;9.93;2.50;;;;;;;;;;4979917;28;20046;-83
2022/04/01 10:03:00;;;;;;;7.70;2.40;;;;;;;;;;4973509;28;20045;-83
2022/04/01 10:05:26;;;;;;;7.88;2.53;;;;;;;;;;4964133;28;20046;-84
2022/04/01 10:07:53;;;;;;;7.75;2.85;;;;;;;;;;4980009;28;20039;-84
2022/04/01 10:10:18;;;;;;;8.73;2.22;;;;;;;;;;4953308;28;20112;-85
2022/04/01 10:12:45;;;;;;;7.47;2.28;;;;;;;;;;4970709;28;20035;-85
2022/04/01 10:15:11;;;;;;;9.07;2.42;;;;;;;;;;4971106;28;20129;-85
2022/04/01 10:17:39;;;;;;;4.97;2.00;;;;;;;;;;4970829;28;20217;-85
2022/04/01 10:20:05;;;;;;;7.55;2.30;;;;;;;;;;4973431;28;20085;-85
2022/04/01 10:22:30;;;;;;;6.20;2.20;;;;;;;;;;4980008;28;20034;-84
2022/04/01 10:25:08;;;;;;;5.22;2.25;;;;;;;;;;4971437;28;20042;-85
2022/04/01 10:27:41;;;;;;;8.95;2.70;;;;;;;;;;4963421;28;20540;-84
2022/04/01 10:30:08;;;;;;;12.20;2.75;;;;;;;;;;4963500;28;20042;-83
2022/04/01 10:32:39;;;;;;;10.07;2.85;;;;;;;;;;4970442;28;20047;-82
2022/04/01 10:35:08;;;;;;;9.75;2.50;;;;;;;;;;4972337;28;20497;-81
2022/04/01 10:37:35;;;;;;;8.32;2.65;;;;;;;;;;4971324;28;20057;-84
2022/04/01 10:40:05;;;;;;;5.25;2.25;;;;;;;;;;4972971;28;20072;-83
2022/04/01 10:42:36;;;;;;;6.80;2.30;;;;;;;;;;4972019;28;20034;-83
2022/04/01 10:45:21;;;;;;;7.18;2.53;;;;;;;;;;4977106;28;20106;-83
2022/04/01 10:53:33;;;;;;;6.05;2.22;;;;;;;;;;4973936;28;20069;-83
2022/04/01 10:56:21;;;;;;;7.28;2.40;;;;;;;;;;4970768;28;20676;-83
2022/04/01 10:59:02;;;;;;;;;;;;;;;;;;4987731;28;20042;-84
2022/04/01 11:01:27;;;;;;;7.30;2.22;;;;;;;;;;4954968;28;19914;-84
2022/04/01 11:03:53;;;;;;;7.00;2.20;;;;;;;;;;4973945;28;20057;-83
2022/04/01 11:06:22;;;;;;;9.18;2.65;;;;;;;;;;4978450;28;20133;-83
2022/04/01 11:08:55;;;;;;;8.90;2.30;;;;;;;;;;4971336;28;20763;-83
2022/04/01 11:11:21;;;;;;;9.65;2.10;;;;;;;;;;4973866;28;20038;-83
2022/04/01 11:14:06;;;;;;;6.75;2.28;;;;;;;;;;4976954;28;20497;-84
2022/04/01 11:16:52;;;;;;;6.05;2.00;;;;;;;;;;4958197;28;20054;-82
2022/04/01 11:19:26;;;;;;;5.05;2.33;;;;;;;;;;4975480;28;20120;-83
2022/04/01 11:21:51;;;;;;;8.13;2.38;;;;;;;;;;4966198;28;20413;-85
2022/04/01 11:24:33;;;;;;;7.53;2.22;;;;;;;;;;4968952;28;20030;-83
2022/04/01 11:27:05;;;;;;;6.22;2.30;;;;;;;;;;4972730;28;20049;-83
2022/04/01 11:29:31;;;;;;;7.78;2.28;;;;;;;;;;4976948;28;20038;-82
2022/04/01 11:32:05;;;;;;;10.95;2.70;;;;;;;;;;4975598;28;20050;-83
2022/04/01 11:34:30;;;;;;;6.00;2.00;;;;;;;;;;4967238;28;20026;-82
2022/04/01 11:37:03;;;;;;;5.68;2.05;;;;;;;;;;4981615;28;20053;-83
2022/04/01 11:39:28;;;;;;;12.02;2.40;;;;;;;;;;4964890;28;20525;-82
2022/04/01 11:41:54;;;;;;;6.80;2.10;;;;;;;;;;4975075;28;20043;-83
2022/04/01 11:44:20;;;;;;;8.27;1.95;;;;;;;;;;4975936;28;20121;-83
2022/04/01 11:46:51;;;;;;;7.95;2.00;;;;;;;;;;4975442;28;20052;-83
2022/04/01 11:49:17;;;;;;;10.85;2.60;;;;;;;;;;4982429;28;20054;-83
2022/04/01 11:51:42;;;;;;;16.85;2.60;;;;;;;;;;4979784;28;20352;-83
2022/04/01 11:54:10;;;;;;;9.98;2.20;;;;;;;;;;4975902;28;20064;-81
2022/04/01 11:56:37;;;;;;;6.38;2.08;;;;;;;;;;4971186;28;20042;-82
2022/04/01 11:59:04;;;;;;;7.57;2.28;;;;;;;;;;4978647;28;20401;-83
2022/04/01 12:01:54;;;;;;;8.50;2.17;;;;;;;;;;4976725;28;20057;-81
2022/04/01 12:04:35;;;;;;;6.45;2.35;;;;;;;;;;4975950;28;20090;-84
2022/04/01 12:09:58;;;;;;;8.75;2.20;;;;;;;;;;4973211;28;20406;-82
2022/04/01 12:12:24;;;;;;;7.97;2.05;;;;;;;;;;4975775;28;20046;-83
2022/04/01 12:14:50;;;;;;;6.88;1.92;;;;;;;;;;4979839;28;20504;-82
2022/04/01 12:17:18;;;;;;;11.02;2.30;;;;;;;;;;4975384;28;20042;-83
2022/04/01 12:19:43;;;;;;;5.82;1.75;;;;;;;;;;4973556;28;20037;-83
2022/04/01 12:22:10;;;;;;;13.80;2.10;;;;;;;;;;4964021;28;20594;-83
2022/04/01 12:24:37;;;;;;;13.68;2.40;;;;;;;;;;4980459;28;20491;-82
2022/04/01 12:27:06;;;;;;;9.18;2.10;;;;;;;;;;4971520;28;20046;-82
2022/04/01 12:29:35;;;;;;;5.40;1.90;;;;;;;;;;4983581;28;20031;-81
2022/04/01 12:32:05;;;;;;;11.70;2.30;;;;;;;;;;4980848;28;20490;-80
2022/04/01 12:34:31;;;;;;;7.03;2.00;;;;;;;;;;4975167;28;20038;-81
2022/04/01 12:37:02;;;;;;;6.97;1.95;;;;;;;;;;4975101;28;20105;-83
2022/04/01 12:39:29;;;;;;;11.93;1.90;;;;;;;;;;4977311;28;20036;-82
2022/04/01 12:41:58;;;;;;;4.53;2.20;;;;;;;;;;4977460;28;20061;-83
2022/04/01 12:44:28;;;;;;;9.10;1.70;;;;;;;;;;4974244;28;20175;-82
2022/04/01 12:46:55;;;;;;;8.18;2.28;;;;;;;;;;4971774;28;20531;-82
2022/04/01 12:49:25;;;;;;;7.10;1.90;;;;;;;;;;4963857;28;20571;-81
2022/04/01 12:52:00;;;;;;;6.38;2.10;;;;;;;;;;4957427;28;20039;-83
2022/04/01 12:54:39;;;;;;;9.82;2.22;;;;;;;;;;4959843;28;20075;-84
2022/04/01 12:57:06;;;;;;;11.18;2.10;;;;;;;;;;4976743;28;20391;-81
2022/04/01 12:59:42;;;;;;;7.55;2.28;;;;;;;;;;4974561;28;20035;-82
2022/04/01 13:02:15;;;;;;;7.85;2.15;;;;;;;;;;4963292;28;20692;-83
2022/04/01 13:04:51;;;;;;;8.25;2.42;;;;;;;;;;4973971;28;20130;-83
2022/04/01 13:07:21;;;;;;;12.80;2.30;;;;;;;;;;4972897;28;20469;-82
2022/04/01 13:09:55;;;;;;;7.50;1.95;;;;;;;;;;4973693;28;20042;-83
2022/04/01 13:12:34;;;;;;;9.15;2.60;;;;;;;;;;4972206;28;20038;-82
2022/04/01 13:15:10;;;;;;;7.85;2.22;;;;;;;;;;4977084;28;20042;-82
2022/04/01 13:17:54;;;;;;;6.43;2.05;;;;;;;;;;4972834;28;20969;-82
2022/04/01 13:20:25;;;;;;;7.93;2.00;;;;;;;;;;4974738;28;20078;-83
2022/04/01 13:22:51;;;;;;;8.15;2.30;;;;;;;;;;4981266;28;20037;-82
2022/04/01 13:25:16;;;;;;;6.60;2.05;;;;;;;;;;4975109;28;20047;-82
2022/04/01 13:27:43;;;;;;;6.68;2.05;;;;;;;;;;4975063;28;20089;-83
2022/04/01 13:30:10;;;;;;;9.50;2.30;;;;;;;;;;4972969;28;20053;-81
2022/04/01 13:32:36;;;;;;;4.95;2.05;;;;;;;;;;4965696;28;20074;-82
2022/04/01 13:35:03;;;;;;;5.30;2.22;;;;;;;;;;4972189;28;20043;-81
2022/04/01 13:37:28;;;;;;;4.60;2.15;;;;;;;;;;4972973;28;20464;-83
2022/04/01 13:39:54;;;;;;;7.00;2.35;;;;;;;;;;4973634;28;20042;-82
2022/04/01 13:42:20;;;;;;;5.78;2.35;;;;;;;;;;4975143;28;20031;-81
2022/04/01 13:44:46;;;;;;;6.80;1.95;;;;;;;;;;4974803;28;20994;-82
2022/04/01 13:47:11;;;;;;;7.30;2.58;;;;;;;;;;4964369;28;20044;-83
2022/04/01 13:49:37;;;;;;;6.90;2.30;;;;;;;;;;4973099;28;20034;-82
2022/04/01 13:52:03;;;;;;;9.00;2.60;;;;;;;;;;4956462;28;20054;-82
2022/04/01 13:54:29;;;;;;;6.43;2.45;;;;;;;;;;4974382;28;20515;-82
2022/04/01 13:56:55;;;;;;;5.38;2.05;;;;;;;;;;4979353;28;20051;-84
2022/04/01 13:59:20;;;;;;;5.78;2.17;;;;;;;;;;4974761;28;20047;-83
2022/04/01 14:01:46;;;;;;;5.75;2.30;;;;;;;;;;4974837;28;20121;-83
2022/04/01 14:04:11;;;;;;;9.43;2.28;;;;;;;;;;4974383;28;20039;-83
2022/04/01 14:06:37;;;;;;;7.50;2.33;;;;;;;;;;4946898;28;20472;-82
2022/04/01 14:09:04;;;;;;;10.48;3.15;;;;;;;;;;4939454;28;20055;-83
2022/04/01 14:11:30;;;;;;;6.88;2.30;;;;;;;;;;4935891;28;20038;-83
2022/04/01 14:13:55;;;;;;;12.57;2.92;;;;;;;;;;4925705;29;20047;-82
2022/04/01 14:16:24;;;;;;;7.53;2.38;;;;;;;;;;4934010;28;20558;-83
2022/04/01 14:18:49;;;;;;;9.27;2.35;;;;;;;;;;4937806;28;20062;-85
2022/04/01 14:21:15;;;;;;;7.80;2.30;;;;;;;;;;4927094;28;20700;-84
2022/04/01 14:23:40;;;;;;;8.57;2.60;;;;;;;;;;4942006;28;21028;-84
2022/04/01 14:26:08;;;;;;;7.60;2.10;;;;;;;;;;4941252;28;20514;-84
2022/04/01 14:28:39;;;;;;;6.57;2.60;;;;;;;;;;4934630;28;20047;-82
2022/04/01 14:31:05;;;;;;;8.38;2.63;;;;;;;;;;4933695;28;20561;-83
2022/04/01 14:33:31;;;;;;;4.13;2.00;;;;;;;;;;4942089;28;20039;-83
2022/04/01 14:35:57;;;;;;;6.57;2.20;;;;;;;;;;4933572;28;20118;-84
2022/04/01 14:38:23;;;;;;;6.10;2.15;;;;;;;;;;4934600;28;20090;-82
2022/04/01 14:40:52;;;;;;;9.80;2.70;;;;;;;;;;4934198;28;20570;-84
2022/04/01 14:43:18;;;;;;;6.35;2.50;;;;;;;;;;4938279;28;20390;-83
2022/04/01 14:45:45;;;;;;;9.00;2.30;;;;;;;;;;4943858;28;20061;-83
2022/04/01 14:48:11;;;;;;;10.20;2.60;;;;;;;;;;4940043;28;20086;-82
2022/04/01 14:50:36;;;;;;;9.07;2.10;;;;;;;;;;4943144;28;20122;-85
2022/04/01 14:53:06;;;;;;;7.20;3.00;;;;;;;;;;4926286;28;20046;-84
2022/04/01 14:55:32;;;;;;;8.05;2.70;;;;;;;;;;4937515;28;20122;-83
2022/04/01 14:57:57;;;;;;;9.15;2.50;;;;;;;;;;4938347;28;20098;-84
2022/04/01 15:00:23;;;;;;;7.43;2.30;;;;;;;;;;4937430;28;20102;-84
2022/04/01 15:02:48;;;;;;;6.22;2.80;;;;;;;;;;4940088;28;20495;-84
2022/04/01 15:05:14;;;;;;;7.82;2.40;;;;;;;;;;4931141;28;20032;-84
2022/04/01 15:07:41;;;;;;;7.07;2.35;;;;;;;;;;4977677;28;20038;-83
2022/04/01 15:10:08;;;;;;;7.10;2.20;;;;;;;;;;4975827;28;20490;-84